This is the latest recevied weather packets stored in our database for station/object W6KRP-12. If no packets are shown the sender has not sent any weather packets the latest 10 day(s).
| Time | Temp. | Humidity | Pressure | Rain* | Wind** | Luminosity | Snow |
|---|---|---|---|---|---|---|---|
| 1777693807 | 16.11° C | 85% | 1009.7 hPa | 0 mm | - | - | - |
| 1777690807 | 16.67° C | 83% | 1010 hPa | 0 mm | - | - | - |
| 1777685406 | 17.78° C | 81% | 1010 hPa | 0 mm | - | - | - |
| 1777684807 | 17.78° C | 81% | 1009.9 hPa | 0 mm | - | - | - |
| 1777680606 | 18.33° C | 79% | 1009.5 hPa | 0 mm | - | - | - |
| 1777673406 | 20.56° C | 72% | 1009.6 hPa | 0 mm | - | - | - |
| 1777657206 | 18.89° C | 63% | 1011.5 hPa | 0 mm | - | - | - |
| 1777653006 | 18.33° C | 59% | 1012 hPa | 0 mm | - | - | - |
| 1777651806 | 18.89° C | 59% | 1011.9 hPa | 0 mm | - | - | - |
| 1777649406 | 17.78° C | 56% | 1012.2 hPa | 0 mm | - | - | - |
| 1777637406 | 15.56° C | 65% | 1011.6 hPa | 0 mm | - | - | - |
| 1777636206 | 15.56° C | 69% | 1011.6 hPa | 0 mm | - | - | - |
| 1777632606 | 15.56° C | 77% | 1011 hPa | 0 mm | - | - | - |
| 1777632006 | 15.56° C | 79% | 1011 hPa | 0 mm | - | - | - |
| 1777630806 | 15.56° C | 90% | 1010.6 hPa | 0 mm | - | - | - |
| 1777621806 | 12.78° C | 98% | 1009.2 hPa | 0 mm | - | - | - |
| 1777620606 | 12.78° C | 98% | 1008.8 hPa | 0 mm | - | - | - |
| 1777619406 | 12.78° C | 98% | 1008.8 hPa | 0 mm | - | - | - |
| 1777609206 | 15° C | 96% | 1009.3 hPa | 0 mm | - | - | - |
| 1777604406 | 16.11° C | 94% | 1008.9 hPa | 0 mm | - | - | - |
| 1777603206 | 16.11° C | 93% | 1009 hPa | 0 mm | - | - | - |
| 1777600807 | 16.67° C | 92% | 1008.7 hPa | 0 mm | - | - | - |
| 1777600207 | 16.67° C | 92% | 1008.6 hPa | 0 mm | - | - | - |
| 1777599007 | 17.22° C | 90% | 1008.3 hPa | 0 mm | - | - | - |
| 1777597207 | 17.78° C | 87% | 1008 hPa | 0 mm | - | - | - |
* Rain latest hour (hover to see other rain measurements)
** Current wind speed in m/s (hover to see current wind gust speed)